createdAt,value
2017-09-03T00:00:03.219Z,1012.46
2017-09-03T00:01:13.506Z,1012.41
2017-09-03T00:02:23.774Z,1012.43
2017-09-03T00:03:34.057Z,1012.39
2017-09-03T00:04:43.692Z,1012.36
2017-09-03T00:05:54.230Z,1012.38
2017-09-03T00:07:04.509Z,1012.32
2017-09-03T00:08:14.464Z,1012.31
2017-09-03T00:09:24.741Z,1012.34
2017-09-03T00:10:35.008Z,1012.31
2017-09-03T00:11:45.201Z,1012.33
2017-09-03T00:12:55.468Z,1012.34
2017-09-03T00:14:05.755Z,1012.37
2017-09-03T00:15:16.025Z,1012.37
2017-09-03T00:16:25.655Z,1012.35
2017-09-03T00:17:36.182Z,1012.3
2017-09-03T00:18:46.452Z,1012.31
2017-09-03T00:19:56.727Z,1012.33
2017-09-03T00:21:06.996Z,1012.28
2017-09-03T00:22:17.262Z,1012.31
2017-09-03T00:23:27.790Z,1012.26
2017-09-03T00:24:38.062Z,1012.23
2017-09-03T00:25:48.018Z,1012.2
2017-09-03T00:26:58.287Z,1012.25
2017-09-03T00:28:08.569Z,1012.29
2017-09-03T00:29:18.463Z,1012.28
2017-09-03T00:30:28.425Z,1012.27
2017-09-03T00:31:38.380Z,1012.25
2017-09-03T00:32:48.655Z,1012.32
2017-09-03T00:33:58.920Z,1012.31
2017-09-03T00:35:09.134Z,1012.3
2017-09-03T00:36:19.098Z,1012.33
2017-09-03T00:37:28.750Z,1012.33
2017-09-03T00:38:38.712Z,1012.37
2017-09-03T00:39:48.988Z,1012.36
2017-09-03T00:40:59.194Z,1012.34
2017-09-03T00:42:09.157Z,1012.38
2017-09-03T00:43:19.129Z,1012.38
2017-09-03T00:44:29.103Z,1012.38
2017-09-03T00:45:39.393Z,1012.34
2017-09-03T00:46:49.926Z,1012.37
2017-09-03T00:47:59.893Z,1012.32
2017-09-03T00:49:10.156Z,1012.32
2017-09-03T00:50:20.111Z,1012.33
2017-09-03T00:51:30.389Z,1012.35
2017-09-03T00:52:40.915Z,1012.33
2017-09-03T00:53:51.208Z,1012.33
2017-09-03T00:55:01.167Z,1012.3
2017-09-03T00:56:11.448Z,1012.25
2017-09-03T00:57:21.410Z,1012.27
2017-09-03T00:58:31.924Z,1012.26
2017-09-03T00:59:42.201Z,1012.29
2017-09-03T01:00:52.480Z,1012.23
2017-09-03T01:02:02.759Z,1012.25
2017-09-03T01:03:13.031Z,1012.25
2017-09-03T01:04:23.493Z,1012.27
2017-09-03T01:05:33.452Z,1012.27
2017-09-03T01:06:43.734Z,1012.26
2017-09-03T01:07:53.684Z,1012.24
2017-09-03T01:09:03.970Z,1012.22
2017-09-03T01:10:14.174Z,1012.23
2017-09-03T01:11:24.454Z,1012.23
2017-09-03T01:12:34.414Z,1012.21
2017-09-03T01:13:44.692Z,1012.23
2017-09-03T01:14:54.654Z,1012.18
2017-09-03T01:16:05.188Z,1012.18
2017-09-03T01:17:15.177Z,1012.24
2017-09-03T01:18:25.449Z,1012.2
2017-09-03T01:19:35.406Z,1012.18
2017-09-03T01:20:45.687Z,1012.14
2017-09-03T01:21:55.582Z,1012.15
2017-09-03T01:23:05.555Z,1012.12
2017-09-03T01:24:15.837Z,1012.11
2017-09-03T01:25:26.112Z,1012.09
2017-09-03T01:26:36.402Z,1012.08
2017-09-03T01:27:46.918Z,1012.05
2017-09-03T01:28:57.209Z,1012.06
2017-09-03T01:30:07.481Z,1012
2017-09-03T01:31:17.436Z,1012.01
2017-09-03T01:32:27.714Z,1011.98
2017-09-03T01:33:37.911Z,1011.97
2017-09-03T01:34:47.859Z,1011.94
2017-09-03T01:35:58.131Z,1011.91
2017-09-03T01:37:08.087Z,1011.91
2017-09-03T01:38:18.348Z,1011.93
2017-09-03T01:39:28.876Z,1011.89
2017-09-03T01:40:38.852Z,1011.94
2017-09-03T01:41:49.121Z,1011.91
2017-09-03T01:42:59.393Z,1011.93
2017-09-03T01:44:09.660Z,1011.94
2017-09-03T01:45:19.550Z,1011.96
2017-09-03T01:46:29.830Z,1011.87
2017-09-03T01:47:40.111Z,1011.87
2017-09-03T01:48:49.435Z,1011.87
2017-09-03T01:49:59.704Z,1011.87
2017-09-03T01:51:09.293Z,1011.83
2017-09-03T01:52:19.554Z,1011.81
2017-09-03T01:53:29.882Z,1011.84
2017-09-03T01:54:40.151Z,1011.88
2017-09-03T01:55:50.431Z,1011.84
2017-09-03T01:57:00.950Z,1011.91
2017-09-03T01:58:11.225Z,1011.81
2017-09-03T01:59:20.866Z,1011.9
2017-09-03T02:00:30.819Z,1011.89
2017-09-03T02:01:40.798Z,1011.92
2017-09-03T02:02:51.323Z,1011.88
2017-09-03T02:04:01.275Z,1011.92
2017-09-03T02:05:11.533Z,1011.92
2017-09-03T02:06:21.799Z,1011.92
2017-09-03T02:07:31.752Z,1011.95
2017-09-03T02:08:41.962Z,1011.96
2017-09-03T02:09:51.914Z,1011.93
2017-09-03T02:11:02.190Z,1011.94
2017-09-03T02:12:12.474Z,1011.94
2017-09-03T02:13:22.742Z,1011.89
2017-09-03T02:14:33.320Z,1011.89
2017-09-03T02:15:43.264Z,1011.87
2017-09-03T02:16:53.566Z,1011.86
2017-09-03T02:18:03.826Z,1011.87
2017-09-03T02:19:13.769Z,1011.9
2017-09-03T02:20:24.297Z,1011.9
2017-09-03T02:21:33.938Z,1011.87
2017-09-03T02:22:43.573Z,1011.89
2017-09-03T02:23:53.851Z,1011.86
2017-09-03T02:25:03.814Z,1011.87
2017-09-03T02:26:13.702Z,1011.86
2017-09-03T02:27:23.981Z,1011.86
2017-09-03T02:28:33.949Z,1011.88
2017-09-03T02:29:43.900Z,1011.83
2017-09-03T02:30:53.868Z,1011.82
2017-09-03T02:32:04.431Z,1011.8
2017-09-03T02:33:14.717Z,1011.87
2017-09-03T02:34:24.989Z,1011.84
2017-09-03T02:35:35.271Z,1011.85
2017-09-03T02:36:45.564Z,1011.87
2017-09-03T02:37:56.095Z,1011.86
2017-09-03T02:39:06.378Z,1011.85
2017-09-03T02:40:16.639Z,1011.87
2017-09-03T02:41:26.937Z,1011.89
2017-09-03T02:42:36.887Z,1011.87
2017-09-03T02:43:47.099Z,1011.88
2017-09-03T02:44:57.060Z,1011.9
2017-09-03T02:46:07.040Z,1011.94
2017-09-03T02:47:17.313Z,1011.89
2017-09-03T02:48:27.589Z,1011.92
2017-09-03T02:49:38.113Z,1011.9
2017-09-03T02:50:48.394Z,1011.94
2017-09-03T02:51:58.673Z,1011.89
2017-09-03T02:53:08.629Z,1011.9
2017-09-03T02:54:18.913Z,1011.9
2017-09-03T02:55:29.125Z,1011.88
2017-09-03T02:56:39.375Z,1011.83
2017-09-03T02:57:49.647Z,1011.81
2017-09-03T02:58:59.629Z,1011.76
2017-09-03T03:00:09.273Z,1011.79
2017-09-03T03:01:19.812Z,1011.77
2017-09-03T03:02:30.101Z,1011.78
2017-09-03T03:03:40.364Z,1011.8
2017-09-03T03:04:49.669Z,1011.77
2017-09-03T03:05:59.967Z,1011.81
2017-09-03T03:07:10.181Z,1011.83
2017-09-03T03:08:20.130Z,1011.85
2017-09-03T03:09:30.401Z,1011.86
2017-09-03T03:10:40.358Z,1011.83
2017-09-03T03:11:50.310Z,1011.86
2017-09-03T03:13:00.192Z,1011.85
2017-09-03T03:14:10.466Z,1011.84
2017-09-03T03:15:20.748Z,1011.85
2017-09-03T03:16:31.005Z,1011.88
2017-09-03T03:17:40.979Z,1011.87
2017-09-03T03:18:51.181Z,1011.83
2017-09-03T03:20:01.446Z,1011.85
2017-09-03T03:21:11.715Z,1011.81
2017-09-03T03:22:21.977Z,1011.86
2017-09-03T03:23:32.252Z,1011.81
2017-09-03T03:24:42.758Z,1011.82
2017-09-03T03:25:52.720Z,1011.85
2017-09-03T03:27:02.974Z,1011.79
2017-09-03T03:28:12.928Z,1011.8
2017-09-03T03:29:23.209Z,1011.78
2017-09-03T03:30:33.721Z,1011.78
2017-09-03T03:31:44.020Z,1011.76
2017-09-03T03:32:54.286Z,1011.75
2017-09-03T03:34:04.573Z,1011.76
2017-09-03T03:35:14.856Z,1011.73
2017-09-03T03:36:25.376Z,1011.7
2017-09-03T03:37:35.052Z,1011.67
2017-09-03T03:38:45.032Z,1011.69
2017-09-03T03:39:55.315Z,1011.69
2017-09-03T03:41:05.580Z,1011.67
2017-09-03T03:42:16.106Z,1011.69
2017-09-03T03:43:26.389Z,1011.65
2017-09-03T03:44:36.668Z,1011.67
2017-09-03T03:45:47.010Z,1011.65
2017-09-03T03:46:57.280Z,1011.66
2017-09-03T03:48:07.821Z,1011.64
2017-09-03T03:49:18.084Z,1011.65
2017-09-03T03:50:28.046Z,1011.63
2017-09-03T03:51:37.991Z,1011.61
2017-09-03T03:52:48.267Z,1011.6
2017-09-03T03:53:58.477Z,1011.6
2017-09-03T03:55:08.779Z,1011.58
2017-09-03T03:56:18.740Z,1011.59
2017-09-03T03:57:29.020Z,1011.63
2017-09-03T03:58:39.290Z,1011.61
2017-09-03T03:59:49.838Z,1011.59
2017-09-03T04:01:00.099Z,1011.56
2017-09-03T04:02:10.059Z,1011.56
2017-09-03T04:03:20.003Z,1011.52
2017-09-03T04:04:30.300Z,1011.52
2017-09-03T04:05:40.823Z,1011.47
2017-09-03T04:06:51.104Z,1011.46
2017-09-03T04:08:00.436Z,1011.51
2017-09-03T04:09:10.696Z,1011.52
2017-09-03T04:10:20.659Z,1011.52
2017-09-03T04:11:31.185Z,1011.53
2017-09-03T04:12:41.142Z,1011.54
2017-09-03T04:13:51.407Z,1011.56
2017-09-03T04:15:01.370Z,1011.54
2017-09-03T04:16:11.335Z,1011.6
2017-09-03T04:17:21.535Z,1011.56
2017-09-03T04:18:31.821Z,1011.57
2017-09-03T04:19:41.780Z,1011.56
2017-09-03T04:20:52.050Z,1011.54
2017-09-03T04:22:02.341Z,1011.55
2017-09-03T04:23:12.863Z,1011.58
2017-09-03T04:24:23.143Z,1011.54
2017-09-03T04:25:33.427Z,1011.55
2017-09-03T04:26:43.695Z,1011.59
2017-09-03T04:27:53.959Z,1011.52
2017-09-03T04:29:04.175Z,1011.58
2017-09-03T04:30:14.466Z,1011.57
2017-09-03T04:31:24.424Z,1011.59
2017-09-03T04:32:34.733Z,1011.59
2017-09-03T04:33:44.993Z,1011.62
2017-09-03T04:34:55.200Z,1011.61
2017-09-03T04:36:05.497Z,1011.58
2017-09-03T04:37:15.450Z,1011.58
2017-09-03T04:38:25.728Z,1011.56
2017-09-03T04:39:35.709Z,1011.54
2017-09-03T04:40:46.225Z,1011.53
2017-09-03T04:41:56.476Z,1011.55
2017-09-03T04:43:06.740Z,1011.48
2017-09-03T04:44:16.707Z,1011.46
2017-09-03T04:45:26.655Z,1011.51
2017-09-03T04:46:36.875Z,1011.52
2017-09-03T04:47:47.138Z,1011.5
2017-09-03T04:48:57.414Z,1011.54
2017-09-03T04:50:07.383Z,1011.52
2017-09-03T04:51:17.657Z,1011.48
2017-09-03T04:52:27.879Z,1011.48
2017-09-03T04:53:38.147Z,1011.46
2017-09-03T04:54:48.107Z,1011.49
2017-09-03T04:55:58.059Z,1011.46
2017-09-03T04:57:08.324Z,1011.46
2017-09-03T04:58:18.582Z,1011.44
2017-09-03T04:59:28.546Z,1011.44
2017-09-03T05:00:38.816Z,1011.48
2017-09-03T05:01:48.773Z,1011.45
2017-09-03T05:02:59.044Z,1011.47
2017-09-03T05:04:09.559Z,1011.49
2017-09-03T05:05:19.519Z,1011.48
2017-09-03T05:06:29.157Z,1011.47
2017-09-03T05:07:39.439Z,1011.47
2017-09-03T05:08:49.730Z,1011.44
2017-09-03T05:10:00.261Z,1011.43
2017-09-03T05:11:10.545Z,1011.42
2017-09-03T05:12:20.818Z,1011.38
2017-09-03T05:13:31.088Z,1011.37
2017-09-03T05:14:40.718Z,1011.41
2017-09-03T05:15:50.917Z,1011.43
2017-09-03T05:17:00.894Z,1011.44
2017-09-03T05:18:11.179Z,1011.41
2017-09-03T05:19:21.141Z,1011.44
2017-09-03T05:20:31.411Z,1011.34
2017-09-03T05:21:41.952Z,1011.37
2017-09-03T05:22:51.278Z,1011.38
2017-09-03T05:24:01.546Z,1011.34
2017-09-03T05:25:11.823Z,1011.36
2017-09-03T05:26:21.771Z,1011.35
2017-09-03T05:27:31.661Z,1011.33
2017-09-03T05:28:41.609Z,1011.31
2017-09-03T05:29:51.894Z,1011.32
2017-09-03T05:31:02.172Z,1011.32
2017-09-03T05:32:12.455Z,1011.32
2017-09-03T05:33:22.647Z,1011.33
2017-09-03T05:34:32.598Z,1011.28
2017-09-03T05:35:42.590Z,1011.3
2017-09-03T05:36:52.227Z,1011.28
2017-09-03T05:38:01.856Z,1011.28
2017-09-03T05:39:12.082Z,1011.27
2017-09-03T05:40:22.037Z,1011.29
2017-09-03T05:41:31.996Z,1011.24
2017-09-03T05:42:41.961Z,1011.23
2017-09-03T05:43:51.606Z,1011.24
2017-09-03T05:45:01.808Z,1011.25
2017-09-03T05:46:11.755Z,1011.27
2017-09-03T05:47:22.021Z,1011.27
2017-09-03T05:48:32.288Z,1011.29
2017-09-03T05:49:42.598Z,1011.26
2017-09-03T05:50:53.125Z,1011.28
2017-09-03T05:52:03.401Z,1011.29
2017-09-03T05:53:13.670Z,1011.21
2017-09-03T05:54:23.622Z,1011.26
2017-09-03T05:55:33.582Z,1011.23
2017-09-03T05:56:43.787Z,1011.22
2017-09-03T05:57:54.067Z,1011.29
2017-09-03T05:59:04.350Z,1011.24
2017-09-03T06:00:14.332Z,1011.24
2017-09-03T06:01:24.283Z,1011.25
2017-09-03T06:02:34.181Z,1011.28
2017-09-03T06:03:44.136Z,1011.3
2017-09-03T06:04:54.108Z,1011.28
2017-09-03T06:06:04.408Z,1011.28
2017-09-03T06:07:14.691Z,1011.25
2017-09-03T06:08:24.883Z,1011.26
2017-09-03T06:09:34.827Z,1011.25
2017-09-03T06:10:44.790Z,1011.24
2017-09-03T06:11:54.746Z,1011.23
2017-09-03T06:13:05.055Z,1011.24
2017-09-03T06:14:15.585Z,1011.26
2017-09-03T06:15:25.585Z,1011.24
2017-09-03T06:16:35.530Z,1011.26
2017-09-03T06:17:45.819Z,1011.3
2017-09-03T06:18:55.798Z,1011.31
2017-09-03T06:20:06.296Z,1011.38
2017-09-03T06:21:16.584Z,1011.4
2017-09-03T06:22:26.865Z,1011.39
2017-09-03T06:23:37.126Z,1011.42
2017-09-03T06:24:47.399Z,1011.42
2017-09-03T06:25:57.614Z,1011.4
2017-09-03T06:27:07.572Z,1011.41
2017-09-03T06:28:17.850Z,1011.38
2017-09-03T06:29:28.135Z,1011.32
2017-09-03T06:30:38.412Z,1011.37
2017-09-03T06:31:48.319Z,1011.32
2017-09-03T06:32:57.966Z,1011.33
2017-09-03T06:34:07.941Z,1011.34
2017-09-03T06:35:18.233Z,1011.33
2017-09-03T06:36:28.510Z,1011.37
2017-09-03T06:37:38.403Z,1011.36
2017-09-03T06:38:48.703Z,1011.36
2017-09-03T06:39:58.975Z,1011.41
2017-09-03T06:41:08.623Z,1011.39
2017-09-03T06:42:18.933Z,1011.43
2017-09-03T06:43:29.463Z,1011.46
2017-09-03T06:44:39.425Z,1011.42
2017-09-03T06:45:49.383Z,1011.49
2017-09-03T06:46:59.655Z,1011.47
2017-09-03T06:48:09.967Z,1011.44
2017-09-03T06:49:20.481Z,1011.46
2017-09-03T06:50:30.446Z,1011.47
2017-09-03T06:51:40.732Z,1011.5
2017-09-03T06:52:50.704Z,1011.47
2017-09-03T06:54:00.998Z,1011.48
2017-09-03T06:55:11.518Z,1011.52
2017-09-03T06:56:21.803Z,1011.54
2017-09-03T06:57:31.469Z,1011.59
2017-09-03T06:58:41.467Z,1011.58
2017-09-03T06:59:51.736Z,1011.58
2017-09-03T07:01:02.266Z,1011.61
2017-09-03T07:02:11.590Z,1011.62
2017-09-03T07:03:21.882Z,1011.66
2017-09-03T07:04:32.155Z,1011.65
2017-09-03T07:05:42.453Z,1011.61
2017-09-03T07:06:52.991Z,1011.66
2017-09-03T07:08:03.284Z,1011.65
2017-09-03T07:09:13.569Z,1011.65
2017-09-03T07:10:23.517Z,1011.65
2017-09-03T07:11:33.799Z,1011.65
2017-09-03T07:12:44.322Z,1011.71
2017-09-03T07:13:54.635Z,1011.65
2017-09-03T07:15:04.596Z,1011.67
2017-09-03T07:16:15.093Z,1011.67
2017-09-03T07:17:25.351Z,1011.68
2017-09-03T07:18:35.578Z,1011.68
2017-09-03T07:19:45.898Z,1011.6
2017-09-03T07:20:56.193Z,1011.62
2017-09-03T07:22:06.475Z,1011.61
2017-09-03T07:23:16.749Z,1011.57
2017-09-03T07:24:26.644Z,1011.58
2017-09-03T07:25:36.931Z,1011.57
2017-09-03T07:26:46.891Z,1011.58
2017-09-03T07:27:56.847Z,1011.62
2017-09-03T07:29:06.796Z,1011.57
2017-09-03T07:30:17.382Z,1011.58
2017-09-03T07:31:27.348Z,1011.58
2017-09-03T07:32:37.620Z,1011.62
2017-09-03T07:33:47.571Z,1011.64
2017-09-03T07:34:57.865Z,1011.63
2017-09-03T07:36:08.107Z,1011.66
2017-09-03T07:37:18.067Z,1011.67
2017-09-03T07:38:28.029Z,1011.69
2017-09-03T07:39:38.313Z,1011.67
2017-09-03T07:40:48.276Z,1011.65
2017-09-03T07:41:58.795Z,1011.65
2017-09-03T07:43:08.756Z,1011.63
2017-09-03T07:44:18.387Z,1011.63
2017-09-03T07:45:28.687Z,1011.64
2017-09-03T07:46:38.640Z,1011.62
2017-09-03T07:47:48.858Z,1011.64
2017-09-03T07:48:58.832Z,1011.62
2017-09-03T07:50:08.787Z,1011.66
2017-09-03T07:51:19.083Z,1011.59
2017-09-03T07:52:29.067Z,1011.66
2017-09-03T07:53:39.316Z,1011.64
2017-09-03T07:54:49.277Z,1011.69
2017-09-03T07:55:59.227Z,1011.67
2017-09-03T07:57:08.882Z,1011.68
2017-09-03T07:58:18.851Z,1011.65
2017-09-03T07:59:29.378Z,1011.68
2017-09-03T08:00:39.656Z,1011.65
2017-09-03T08:01:49.928Z,1011.62
2017-09-03T08:02:59.889Z,1011.67
2017-09-03T08:04:09.867Z,1011.67
2017-09-03T08:05:20.434Z,1011.69
2017-09-03T08:06:30.715Z,1011.69
2017-09-03T08:07:41.004Z,1011.65
2017-09-03T08:08:50.973Z,1011.66
2017-09-03T08:10:00.620Z,1011.66
2017-09-03T08:11:10.845Z,1011.65
2017-09-03T08:12:20.480Z,1011.62
2017-09-03T08:13:30.770Z,1011.61
2017-09-03T08:14:41.042Z,1011.6
2017-09-03T08:15:51.337Z,1011.61
2017-09-03T08:17:01.878Z,1011.64
2017-09-03T08:18:11.832Z,1011.62
2017-09-03T08:19:21.479Z,1011.54
2017-09-03T08:20:31.124Z,1011.63
2017-09-03T08:21:41.090Z,1011.59
2017-09-03T08:22:51.633Z,1011.64
2017-09-03T08:24:01.930Z,1011.63
2017-09-03T08:25:11.894Z,1011.63
2017-09-03T08:26:22.192Z,1011.58
2017-09-03T08:27:32.473Z,1011.58
2017-09-03T08:28:42.689Z,1011.58
2017-09-03T08:29:52.961Z,1011.52
2017-09-03T08:31:03.257Z,1011.57
2017-09-03T08:32:13.560Z,1011.52
2017-09-03T08:33:23.824Z,1011.51
2017-09-03T08:34:34.364Z,1011.57
2017-09-03T08:35:44.665Z,1011.47
2017-09-03T08:36:54.648Z,1011.47
2017-09-03T08:38:04.303Z,1011.48
2017-09-03T08:39:14.292Z,1011.44
2017-09-03T08:40:24.856Z,1011.38
2017-09-03T08:41:35.137Z,1011.46
2017-09-03T08:42:45.418Z,1011.46
2017-09-03T08:43:55.690Z,1011.53
2017-09-03T08:45:05.986Z,1011.45
2017-09-03T08:46:16.533Z,1011.48
2017-09-03T08:47:26.845Z,1011.48
2017-09-03T08:48:37.135Z,1011.47
2017-09-03T08:49:47.415Z,1011.45
2017-09-03T08:50:57.681Z,1011.45
2017-09-03T08:52:07.949Z,1011.46
2017-09-03T08:53:17.284Z,1011.49
2017-09-03T08:54:27.561Z,1011.5
2017-09-03T08:55:37.859Z,1011.52
2017-09-03T08:56:47.836Z,1011.53
2017-09-03T08:57:58.375Z,1011.46
2017-09-03T08:59:08.035Z,1011.52
2017-09-03T09:00:18.310Z,1011.43
2017-09-03T09:01:28.581Z,1011.51
2017-09-03T09:02:38.568Z,1011.56
2017-09-03T09:03:48.790Z,1011.51
2017-09-03T09:04:59.103Z,1011.43
2017-09-03T09:06:09.067Z,1011.42
2017-09-03T09:07:19.350Z,1011.47
2017-09-03T09:08:29.319Z,1011.47
2017-09-03T09:09:39.862Z,1011.5
2017-09-03T09:10:50.159Z,1011.44
2017-09-03T09:12:00.447Z,1011.49
2017-09-03T09:13:10.419Z,1011.39
2017-09-03T09:14:20.691Z,1011.39
2017-09-03T09:15:30.594Z,1011.34
2017-09-03T09:16:40.886Z,1011.36
2017-09-03T09:17:50.550Z,1011.33
2017-09-03T09:19:00.855Z,1011.36
2017-09-03T09:20:11.136Z,1011.36
2017-09-03T09:21:21.346Z,1011.34
2017-09-03T09:22:31.623Z,1011.34
2017-09-03T09:23:41.921Z,1011.33
2017-09-03T09:24:52.222Z,1011.36
2017-09-03T09:26:02.504Z,1011.4
2017-09-03T09:27:12.401Z,1011.32
2017-09-03T09:28:22.415Z,1011.33
2017-09-03T09:29:32.709Z,1011.32
2017-09-03T09:30:42.361Z,1011.31
2017-09-03T09:31:52.692Z,1011.3
2017-09-03T09:33:03.221Z,1011.3
2017-09-03T09:34:13.500Z,1011.24
2017-09-03T09:35:23.779Z,1011.27
2017-09-03T09:36:34.080Z,1011.28
2017-09-03T09:37:44.383Z,1011.24
2017-09-03T09:38:54.929Z,1011.22
2017-09-03T09:40:05.226Z,1011.24
2017-09-03T09:41:15.196Z,1011.28
2017-09-03T09:42:25.186Z,1011.19
2017-09-03T09:43:35.162Z,1011.29
2017-09-03T09:44:45.434Z,1011.25
2017-09-03T09:45:55.726Z,1011.22
2017-09-03T09:47:05.998Z,1011.22
2017-09-03T09:48:15.972Z,1011.22
2017-09-03T09:49:26.269Z,1011.2
2017-09-03T09:50:36.808Z,1011.22
2017-09-03T09:51:47.090Z,1011.13
2017-09-03T09:52:56.740Z,1011.18
2017-09-03T09:54:07.025Z,1011.19
2017-09-03T09:55:17.303Z,1011.26
2017-09-03T09:56:27.846Z,1011.18
2017-09-03T09:57:37.817Z,1011.18
2017-09-03T09:58:48.089Z,1011.12
2017-09-03T09:59:58.392Z,1011.12
2017-09-03T10:01:08.674Z,1011.06
2017-09-03T10:02:19.235Z,1011.16
2017-09-03T10:03:29.195Z,1011.14
2017-09-03T10:04:39.486Z,1011.09
2017-09-03T10:05:49.452Z,1011.23
2017-09-03T10:06:59.457Z,1011.13
2017-09-03T10:08:10.017Z,1011.16
2017-09-03T10:09:20.350Z,1011.16
2017-09-03T10:10:30.313Z,1011.2
2017-09-03T10:11:40.599Z,1011.17
2017-09-03T10:12:50.571Z,1011.16
2017-09-03T10:14:01.129Z,1011.14
2017-09-03T10:15:10.466Z,1011.12
2017-09-03T10:16:20.767Z,1011.11
2017-09-03T10:17:31.053Z,1011.09
2017-09-03T10:18:41.340Z,1011.17
2017-09-03T10:19:51.896Z,1011.1
2017-09-03T10:21:02.204Z,1011.08
2017-09-03T10:22:12.504Z,1011.13
2017-09-03T10:23:22.815Z,1011.07
2017-09-03T10:24:32.777Z,1011.04
2017-09-03T10:25:43.317Z,1010.98
2017-09-03T10:26:53.631Z,1011.03
2017-09-03T10:28:03.576Z,1011.05
2017-09-03T10:29:13.879Z,1010.93
2017-09-03T10:30:23.859Z,1010.99
2017-09-03T10:31:34.409Z,1011.02
2017-09-03T10:32:44.368Z,1010.96
2017-09-03T10:33:53.713Z,1011.01
2017-09-03T10:35:03.997Z,1011
2017-09-03T10:36:14.270Z,1010.99
2017-09-03T10:37:24.814Z,1010.98
2017-09-03T10:38:35.117Z,1010.91
2017-09-03T10:39:45.089Z,1010.91
2017-09-03T10:40:55.051Z,1010.94
2017-09-03T10:42:05.028Z,1010.88
2017-09-03T10:43:15.578Z,1010.84
2017-09-03T10:44:25.544Z,1010.88
2017-09-03T10:45:35.846Z,1010.88
2017-09-03T10:46:46.152Z,1010.94
2017-09-03T10:47:55.810Z,1010.88
2017-09-03T10:49:06.031Z,1010.82
2017-09-03T10:50:16.010Z,1010.86
2017-09-03T10:51:26.296Z,1010.83
2017-09-03T10:52:36.586Z,1010.81
2017-09-03T10:53:46.547Z,1010.78
2017-09-03T10:54:57.068Z,1010.75
2017-09-03T10:56:06.745Z,1010.75
2017-09-03T10:57:17.039Z,1010.74
2017-09-03T10:58:27.022Z,1010.8
2017-09-03T10:59:37.022Z,1010.79
2017-09-03T11:00:47.579Z,1010.73
2017-09-03T11:01:57.868Z,1010.79
2017-09-03T11:03:07.850Z,1010.74
2017-09-03T11:04:18.153Z,1010.73
2017-09-03T11:05:28.460Z,1010.69
2017-09-03T11:06:38.685Z,1010.75
2017-09-03T11:07:48.978Z,1010.7
2017-09-03T11:08:59.253Z,1010.66
2017-09-03T11:10:09.589Z,1010.71
2017-09-03T11:11:19.572Z,1010.92
2017-09-03T11:12:29.802Z,1010.69
2017-09-03T11:13:40.086Z,1010.65
2017-09-03T11:14:50.071Z,1010.84
2017-09-03T11:16:00.383Z,1010.83
2017-09-03T11:17:10.665Z,1010.74
2017-09-03T11:18:21.212Z,1010.84
2017-09-03T11:19:31.188Z,1010.78
2017-09-03T11:20:41.505Z,1010.85
2017-09-03T11:21:51.825Z,1010.84
2017-09-03T11:23:01.814Z,1010.82
2017-09-03T11:24:12.341Z,1010.85
2017-09-03T11:25:22.655Z,1010.82
2017-09-03T11:26:32.941Z,1010.87
2017-09-03T11:27:42.916Z,1010.76
2017-09-03T11:28:52.897Z,1010.8
2017-09-03T11:30:03.138Z,1010.76
2017-09-03T11:31:13.429Z,1010.77
2017-09-03T11:32:23.730Z,1010.84
2017-09-03T11:33:34.021Z,1010.8
2017-09-03T11:34:44.344Z,1010.81
2017-09-03T11:35:54.570Z,1010.81
2017-09-03T11:37:04.875Z,1010.77
2017-09-03T11:38:15.173Z,1010.78
2017-09-03T11:39:25.480Z,1010.75
2017-09-03T11:40:35.447Z,1010.74
2017-09-03T11:41:45.670Z,1010.7
2017-09-03T11:42:55.964Z,1010.74
2017-09-03T11:44:06.251Z,1010.81
2017-09-03T11:45:16.541Z,1010.74
2017-09-03T11:46:26.540Z,1010.72
2017-09-03T11:47:37.068Z,1010.72
2017-09-03T11:48:47.381Z,1010.73
2017-09-03T11:49:57.693Z,1010.77
2017-09-03T11:51:07.679Z,1010.68
2017-09-03T11:52:17.665Z,1010.74
2017-09-03T11:53:28.215Z,1010.71
2017-09-03T11:54:38.192Z,1010.65
2017-09-03T11:55:48.493Z,1010.65
2017-09-03T11:56:58.799Z,1010.64
2017-09-03T11:58:09.083Z,1010.59
2017-09-03T11:59:19.315Z,1010.57
2017-09-03T12:00:28.981Z,1010.55
2017-09-03T12:01:38.952Z,1010.49
2017-09-03T12:02:48.909Z,1010.51
2017-09-03T12:03:58.573Z,1010.5
2017-09-03T12:05:09.119Z,1010.52
2017-09-03T12:06:19.404Z,1010.46
2017-09-03T12:07:29.716Z,1010.4
2017-09-03T12:08:40.014Z,1010.35
2017-09-03T12:09:49.997Z,1010.31
2017-09-03T12:11:00.557Z,1010.39
2017-09-03T12:12:10.874Z,1010.38
2017-09-03T12:13:20.859Z,1010.41
2017-09-03T12:14:31.169Z,1010.36
2017-09-03T12:15:41.488Z,1010.36
2017-09-03T12:16:52.044Z,1010.38
2017-09-03T12:18:02.336Z,1010.37
2017-09-03T12:19:12.335Z,1010.39
2017-09-03T12:20:22.623Z,1010.34
2017-09-03T12:21:32.902Z,1010.32
2017-09-03T12:22:43.464Z,1010.26
2017-09-03T12:23:53.756Z,1010.19
2017-09-03T12:25:04.055Z,1010.25
2017-09-03T12:26:14.344Z,1010.24
2017-09-03T12:27:24.627Z,1010.19
2017-09-03T12:28:34.863Z,1010.17
2017-09-03T12:29:45.141Z,1010.23
2017-09-03T12:30:55.142Z,1010.18
2017-09-03T12:32:05.108Z,1010.12
2017-09-03T12:33:15.409Z,1010.1
2017-09-03T12:34:25.954Z,1010.08
2017-09-03T12:35:36.254Z,1010.08
2017-09-03T12:36:45.911Z,1010.05
2017-09-03T12:37:56.210Z,1010.02
2017-09-03T12:39:06.506Z,1010.09
2017-09-03T12:40:17.101Z,1010.02
2017-09-03T12:41:27.393Z,1010.02
2017-09-03T12:42:37.726Z,1009.98
2017-09-03T12:43:47.709Z,1010.08
2017-09-03T12:44:58.001Z,1009.95
2017-09-03T12:46:07.897Z,1009.96
2017-09-03T12:47:18.233Z,1009.99
2017-09-03T12:48:28.197Z,1009.9
2017-09-03T12:49:38.484Z,1009.91
2017-09-03T12:50:48.762Z,1009.82
2017-09-03T12:51:59.318Z,1009.87
2017-09-03T12:53:09.633Z,1009.81
2017-09-03T12:54:19.931Z,1009.86
2017-09-03T12:55:30.223Z,1009.84
2017-09-03T12:56:39.872Z,1009.78
2017-09-03T12:57:50.431Z,1009.67
2017-09-03T12:59:00.747Z,1009.77
2017-09-03T13:00:11.035Z,1009.77
2017-09-03T13:01:21.347Z,1009.72
2017-09-03T13:02:31.649Z,1009.72
2017-09-03T13:03:42.190Z,1009.67
2017-09-03T13:04:52.485Z,1009.68
2017-09-03T13:06:02.757Z,1009.64
2017-09-03T13:07:13.055Z,1009.64
2017-09-03T13:08:23.342Z,1009.64
2017-09-03T13:09:33.881Z,1009.6
2017-09-03T13:10:44.158Z,1009.62
2017-09-03T13:11:54.466Z,1009.65
2017-09-03T13:13:04.758Z,1009.66
2017-09-03T13:14:14.755Z,1009.62
2017-09-03T13:15:25.293Z,1009.63
2017-09-03T13:16:35.280Z,1009.66
2017-09-03T13:17:45.553Z,1009.66
2017-09-03T13:18:55.521Z,1009.58
2017-09-03T13:20:05.816Z,1009.61
2017-09-03T13:21:16.372Z,1009.66
2017-09-03T13:22:26.353Z,1009.6
2017-09-03T13:23:36.626Z,1009.64
2017-09-03T13:24:46.268Z,1009.69
2017-09-03T13:25:56.243Z,1009.67
2017-09-03T13:27:06.782Z,1009.68
2017-09-03T13:28:16.760Z,1009.7
2017-09-03T13:29:26.091Z,1009.67
2017-09-03T13:30:36.365Z,1009.67
2017-09-03T13:31:46.016Z,1009.64
2017-09-03T13:32:56.261Z,1009.64
2017-09-03T13:34:06.237Z,1009.64
2017-09-03T13:35:16.204Z,1009.65
2017-09-03T13:36:25.871Z,1009.63
2017-09-03T13:37:35.533Z,1009.61
2017-09-03T13:38:46.101Z,1009.61
2017-09-03T13:39:55.427Z,1009.57
2017-09-03T13:41:05.083Z,1009.64
2017-09-03T13:42:15.366Z,1009.62
2017-09-03T13:43:25.668Z,1009.58
2017-09-03T13:44:35.889Z,1009.59
2017-09-03T13:45:45.859Z,1009.63
2017-09-03T13:46:55.531Z,1009.63
2017-09-03T13:48:05.515Z,1009.57
2017-09-03T13:49:15.180Z,1009.57
2017-09-03T13:50:25.394Z,1009.6
2017-09-03T13:51:35.053Z,1009.57
2017-09-03T13:52:45.003Z,1009.57
2017-09-03T13:53:54.977Z,1009.54
2017-09-03T13:55:05.275Z,1009.54
2017-09-03T13:56:15.483Z,1009.49
2017-09-03T13:57:25.762Z,1009.48
2017-09-03T13:58:36.028Z,1009.47
2017-09-03T13:59:46.314Z,1009.47
2017-09-03T14:00:56.279Z,1009.46
2017-09-03T14:02:06.503Z,1009.54
2017-09-03T14:03:16.787Z,1009.54
2017-09-03T14:04:26.810Z,1009.54
2017-09-03T14:05:36.452Z,1009.46
2017-09-03T14:06:46.418Z,1009.46
2017-09-03T14:07:56.719Z,1009.46
2017-09-03T14:09:06.065Z,1009.45
2017-09-03T14:10:16.347Z,1009.45